createdAt,value
2018-12-15T00:01:11.096Z,27.90
2018-12-15T00:03:19.651Z,28.17
2018-12-15T00:05:28.360Z,27.73
2018-12-15T00:07:32.347Z,31.77
2018-12-15T00:11:44.159Z,29.07
2018-12-15T00:13:48.134Z,26.97
2018-12-15T00:15:52.096Z,28.93
2018-12-15T00:18:00.866Z,29.03
2018-12-15T00:20:09.708Z,24.93
2018-12-15T00:22:15.804Z,31.37
2018-12-15T00:24:19.567Z,28.10
2018-12-15T00:26:25.352Z,28.60
2018-12-15T00:28:29.259Z,29.50
2018-12-15T00:30:33.132Z,29.90
2018-12-15T00:32:42.861Z,28.47
2018-12-15T00:34:51.656Z,36.27
2018-12-15T00:36:55.624Z,32.10
2018-12-15T00:38:59.611Z,29.37
2018-12-15T00:41:03.539Z,30.43
2018-12-15T00:43:07.379Z,24.50
2018-12-15T00:45:16.020Z,30.13
2018-12-15T00:47:24.959Z,31.17
2018-12-15T00:49:33.713Z,26.53
2018-12-15T00:51:37.944Z,29.50
2018-12-15T00:53:46.741Z,25.13
2018-12-15T00:55:50.958Z,33.67
2018-12-15T00:57:56.892Z,27.37
2018-12-15T01:00:00.959Z,32.10
2018-12-15T01:02:06.827Z,33.30
2018-12-15T01:04:15.550Z,30.90
2018-12-15T01:06:19.649Z,29.40
2018-12-15T01:08:25.491Z,31.03
2018-12-15T01:20:50.316Z,29.27
2018-12-15T01:22:54.135Z,27.60
2018-12-15T01:25:02.800Z,30.60
2018-12-15T01:27:11.479Z,31.07
2018-12-15T01:29:20.525Z,30.03
2018-12-15T01:31:24.335Z,29.67
2018-12-15T01:33:28.160Z,30.37
2018-12-15T01:35:37.640Z,34.50
2018-12-15T01:37:41.612Z,26.90
2018-12-15T01:39:50.353Z,31.93
2018-12-15T01:41:54.284Z,31.67
2018-12-15T01:43:58.288Z,32.93
2018-12-15T01:46:02.327Z,29.27
2018-12-15T01:48:06.136Z,36.63
2018-12-15T01:50:14.777Z,29.27
2018-12-15T01:52:19.065Z,32.33
2018-12-15T01:54:27.833Z,30.67
2018-12-15T01:56:31.240Z,31.27
2018-12-15T01:58:39.929Z,32.80
2018-12-15T02:00:48.816Z,28.73
2018-12-15T02:02:57.687Z,30.87
2018-12-15T02:05:06.629Z,31.20
2018-12-15T02:07:10.829Z,33.90
2018-12-15T02:09:14.788Z,36.40
2018-12-15T02:11:23.435Z,31.03
2018-12-15T02:13:29.622Z,31.70
2018-12-15T02:15:33.493Z,33.57
2018-12-15T02:17:37.415Z,32.20
2018-12-15T02:19:46.168Z,33.07
2018-12-15T02:23:56.158Z,36.57
2018-12-15T02:26:01.924Z,35.57
2018-12-15T02:28:10.611Z,35.50
2018-12-15T02:30:14.582Z,34.40
2018-12-15T02:32:20.560Z,35.07
2018-12-15T02:34:24.453Z,32.33
2018-12-15T02:36:33.064Z,33.17
2018-12-15T02:38:41.775Z,35.13
2018-12-15T02:40:45.770Z,37.87
2018-12-15T02:42:49.649Z,36.17
2018-12-15T02:44:58.418Z,34.87
2018-12-15T02:47:11.598Z,38.60
2018-12-15T02:49:21.241Z,36.77
2018-12-15T02:51:30.017Z,37.63
2018-12-15T02:53:38.779Z,36.77
2018-12-15T02:55:42.831Z,35.27
2018-12-15T02:57:51.625Z,35.67
2018-12-15T03:00:00.606Z,35.47
2018-12-15T03:02:06.837Z,35.80
2018-12-15T03:04:10.610Z,36.50
2018-12-15T03:06:19.316Z,36.07
2018-12-15T03:08:23.420Z,34.13
2018-12-15T03:10:27.287Z,36.00
2018-12-15T03:12:36.212Z,37.00
2018-12-15T03:14:40.195Z,34.13
2018-12-15T03:16:56.033Z,35.57
2018-12-15T03:19:04.020Z,37.10
2018-12-15T03:21:08.472Z,33.80
2018-12-15T03:25:16.016Z,36.07
2018-12-15T03:27:22.003Z,37.03
2018-12-15T03:29:26.101Z,37.00
2018-12-15T03:31:34.642Z,36.20
2018-12-15T03:33:38.626Z,36.93
2018-12-15T03:35:42.401Z,43.03
2018-12-15T03:37:50.972Z,32.53
2018-12-15T03:39:57.164Z,36.40
2018-12-15T03:42:05.885Z,39.03
2018-12-15T03:44:14.765Z,39.77
2018-12-15T03:46:18.684Z,37.00
2018-12-15T03:48:22.892Z,38.53
2018-12-15T03:50:27.138Z,38.13
2018-12-15T03:52:30.805Z,40.27
2018-12-15T03:54:39.672Z,39.50
2018-12-15T03:56:45.839Z,36.90
2018-12-15T03:58:49.566Z,39.23
2018-12-15T04:00:58.137Z,36.37
2018-12-15T04:03:02.084Z,41.23
2018-12-15T04:05:06.169Z,38.47
2018-12-15T04:07:09.735Z,38.00
2018-12-15T04:09:18.617Z,38.33
2018-12-15T04:11:22.324Z,41.37
2018-12-15T04:13:31.056Z,40.43
2018-12-15T04:15:39.832Z,39.67
2018-12-15T04:17:48.595Z,39.90
2018-12-15T04:19:57.538Z,37.73
2018-12-15T04:22:15.650Z,41.83
2018-12-15T04:26:28.314Z,40.37
2018-12-15T04:28:32.417Z,35.67
2018-12-15T04:30:41.056Z,39.03
2018-12-15T04:32:49.808Z,42.00
2018-12-15T04:34:53.819Z,35.60
2018-12-15T04:37:02.390Z,40.27
2018-12-15T04:39:11.491Z,39.33
2018-12-15T04:41:15.258Z,38.27
2018-12-15T04:43:19.264Z,38.83
2018-12-15T04:45:27.992Z,38.97
2018-12-15T04:47:32.089Z,40.47
2018-12-15T04:49:40.736Z,36.13
2018-12-15T04:51:44.809Z,40.70
2018-12-15T04:53:53.523Z,36.33
2018-12-15T04:55:57.674Z,42.00
2018-12-15T04:58:01.471Z,35.73
2018-12-15T05:00:06.281Z,37.53
2018-12-15T05:02:15.193Z,41.97
2018-12-15T05:04:19.322Z,39.47
2018-12-15T05:06:23.273Z,39.10
2018-12-15T05:08:27.331Z,40.23
2018-12-15T05:10:31.082Z,37.83
2018-12-15T05:12:34.925Z,42.07
2018-12-15T05:14:39.021Z,41.13
2018-12-15T05:16:47.671Z,40.93
2018-12-15T05:18:51.166Z,39.73
2018-12-15T05:21:00.005Z,38.20
2018-12-15T05:23:08.837Z,39.90
2018-12-15T05:25:17.581Z,40.50
2018-12-15T05:27:26.535Z,46.60
2018-12-15T05:29:35.202Z,39.40
2018-12-15T05:31:39.457Z,40.70
2018-12-15T05:33:43.281Z,42.50
2018-12-15T05:35:51.834Z,36.90
2018-12-15T05:38:00.666Z,38.57
2018-12-15T05:40:09.514Z,38.87
2018-12-15T05:42:13.767Z,41.83
2018-12-15T05:44:17.721Z,39.47
2018-12-15T05:46:21.569Z,43.37
2018-12-15T05:48:27.587Z,37.83
2018-12-15T05:50:36.452Z,35.60
2018-12-15T05:52:45.173Z,38.73
2018-12-15T05:54:53.895Z,39.47
2018-12-15T05:56:58.392Z,40.30
2018-12-15T05:59:02.032Z,43.23
2018-12-15T06:01:11.738Z,40.93
2018-12-15T06:03:20.542Z,40.90
2018-12-15T06:05:29.505Z,43.43
2018-12-15T06:07:33.460Z,40.40
2018-12-15T06:09:37.461Z,43.73
2018-12-15T06:11:41.337Z,45.43
2018-12-15T06:13:50.144Z,44.43
2018-12-15T06:15:58.957Z,37.87
2018-12-15T06:20:16.742Z,39.63
2018-12-15T06:22:22.813Z,36.17
2018-12-15T06:24:31.409Z,42.23
2018-12-15T06:26:40.455Z,40.33
2018-12-15T06:28:49.278Z,38.90
2018-12-15T06:30:53.132Z,42.27
2018-12-15T06:32:57.224Z,39.00
2018-12-15T06:35:05.999Z,39.83
2018-12-15T06:37:14.748Z,42.77
2018-12-15T06:39:18.827Z,38.57
2018-12-15T06:41:28.432Z,36.77
2018-12-15T06:43:37.677Z,42.67
2018-12-15T06:45:47.473Z,46.73
2018-12-15T06:47:55.920Z,46.53
2018-12-15T06:50:04.792Z,38.10
2018-12-15T06:52:08.691Z,40.10
2018-12-15T06:54:12.704Z,41.23
2018-12-15T06:56:16.628Z,35.20
2018-12-15T06:58:25.701Z,42.83
2018-12-15T07:00:34.031Z,36.33
2018-12-15T07:02:42.832Z,41.70
2018-12-15T07:04:48.841Z,38.63
2018-12-15T07:06:53.066Z,37.23
2018-12-15T07:08:56.758Z,39.60
2018-12-15T07:11:05.392Z,36.80
2018-12-15T07:13:14.107Z,45.23
2018-12-15T07:15:18.091Z,39.57
2018-12-15T07:17:22.076Z,44.13
2018-12-15T07:19:30.911Z,40.73
2018-12-15T07:21:35.234Z,37.27
2018-12-15T07:23:43.816Z,40.80
2018-12-15T07:25:48.118Z,39.00
2018-12-15T07:27:56.705Z,43.90
2018-12-15T07:30:05.905Z,35.50
2018-12-15T07:32:10.387Z,41.10
2018-12-15T07:34:14.288Z,42.37
2018-12-15T07:36:22.937Z,41.40
2018-12-15T07:38:27.043Z,46.23
2018-12-15T07:40:30.959Z,52.13
2018-12-15T07:42:34.909Z,53.23
2018-12-15T07:44:43.740Z,40.03
2018-12-15T07:46:53.413Z,43.63
2018-12-15T07:48:57.560Z,39.10
2018-12-15T07:51:01.601Z,40.17
2018-12-15T07:53:10.046Z,36.53
2018-12-15T07:55:18.871Z,38.10
2018-12-15T07:57:22.941Z,44.73
2018-12-15T07:59:31.625Z,36.60
2018-12-15T08:01:40.417Z,39.67
2018-12-15T08:03:44.549Z,35.23
2018-12-15T08:05:53.188Z,39.57
2018-12-15T08:08:01.944Z,43.23
2018-12-15T08:10:06.187Z,39.10
2018-12-15T08:12:20.185Z,40.93
2018-12-15T08:14:28.487Z,40.20
2018-12-15T08:16:37.621Z,38.03
2018-12-15T08:18:46.187Z,35.53
2018-12-15T08:20:55.019Z,37.70
2018-12-15T08:22:59.091Z,38.27
2018-12-15T08:25:03.613Z,37.90
2018-12-15T08:27:12.599Z,38.47
2018-12-15T08:29:21.568Z,36.77
2018-12-15T08:31:30.320Z,35.50
2018-12-15T08:33:34.616Z,36.13
2018-12-15T08:35:41.257Z,34.07
2018-12-15T08:37:49.912Z,40.63
2018-12-15T08:39:53.976Z,41.03
2018-12-15T08:41:59.850Z,36.37
2018-12-15T08:44:05.808Z,30.53
2018-12-15T08:46:11.709Z,38.83
2018-12-15T08:48:15.960Z,37.60
2018-12-15T08:50:24.580Z,37.97
2018-12-15T08:52:30.722Z,41.00
2018-12-15T08:54:39.300Z,36.27
2018-12-15T08:56:43.400Z,33.30
2018-12-15T08:58:47.758Z,39.50
2018-12-15T09:00:51.518Z,38.87
2018-12-15T09:02:55.615Z,39.53
2018-12-15T09:05:04.385Z,33.17
2018-12-15T09:07:13.225Z,41.07
2018-12-15T09:09:17.389Z,35.77
2018-12-15T09:11:21.268Z,35.53
2018-12-15T09:13:29.847Z,33.77
2018-12-15T09:15:34.044Z,30.83
2018-12-15T09:17:42.689Z,41.00
2018-12-15T09:19:51.548Z,38.93
2018-12-15T09:21:55.516Z,34.63
2018-12-15T09:23:59.360Z,38.10
2018-12-15T09:26:03.245Z,39.43
2018-12-15T09:28:07.108Z,32.03
2018-12-15T09:30:15.836Z,36.13
2018-12-15T09:32:21.965Z,33.03
2018-12-15T09:34:27.834Z,33.43
2018-12-15T09:36:31.789Z,36.50
2018-12-15T09:38:40.377Z,37.17
2018-12-15T09:40:44.536Z,42.03
2018-12-15T09:42:53.173Z,26.27
2018-12-15T09:45:02.103Z,42.37
2018-12-15T09:47:06.567Z,30.07
2018-12-15T09:49:17.552Z,39.83
2018-12-15T09:51:22.915Z,35.73
2018-12-15T09:53:27.061Z,44.03
2018-12-15T09:55:31.905Z,35.97
2018-12-15T09:57:35.636Z,28.40
2018-12-15T09:59:44.367Z,37.57
2018-12-15T10:01:48.457Z,39.03
2018-12-15T10:03:57.353Z,34.90
2018-12-15T10:06:01.142Z,47.10
2018-12-15T10:08:05.176Z,46.50
2018-12-15T10:10:08.980Z,37.73
2018-12-15T10:12:17.781Z,36.57
2018-12-15T10:14:21.872Z,38.20
2018-12-15T10:16:25.532Z,35.53
2018-12-15T10:18:29.441Z,41.10
2018-12-15T10:20:37.991Z,39.10
2018-12-15T10:22:42.245Z,43.80
2018-12-15T10:24:50.854Z,37.50
2018-12-15T10:26:54.866Z,35.73
2018-12-15T10:29:03.668Z,36.53
2018-12-15T10:31:13.056Z,42.83
2018-12-15T10:33:22.296Z,34.27
2018-12-15T10:35:26.155Z,36.00
2018-12-15T10:37:30.259Z,37.13
2018-12-15T10:39:36.020Z,44.97
2018-12-15T10:41:44.707Z,42.63
2018-12-15T10:43:48.097Z,39.73
2018-12-15T10:45:56.601Z,37.73
2018-12-15T10:48:00.732Z,34.83
2018-12-15T10:50:09.952Z,39.43
2018-12-15T10:52:13.349Z,36.90
2018-12-15T10:54:17.432Z,35.27
2018-12-15T10:56:21.251Z,43.07
2018-12-15T10:58:25.211Z,38.37
2018-12-15T11:00:39.486Z,42.37
2018-12-15T11:02:48.026Z,39.50
2018-12-15T11:04:56.671Z,40.37
2018-12-15T11:07:05.473Z,39.53
2018-12-15T11:09:09.544Z,41.43
2018-12-15T11:11:13.531Z,30.77
2018-12-15T11:13:17.649Z,37.07
2018-12-15T11:15:26.044Z,39.83
2018-12-15T11:17:30.203Z,44.27
2018-12-15T11:19:38.849Z,35.33
2018-12-15T11:21:42.804Z,41.90
2018-12-15T11:23:46.680Z,38.77
2018-12-15T11:25:55.362Z,43.40
2018-12-15T11:27:59.670Z,40.47
2018-12-15T11:30:04.699Z,36.87
2018-12-15T11:32:08.516Z,35.63
2018-12-15T11:34:12.613Z,40.50
2018-12-15T11:36:16.637Z,39.57
2018-12-15T11:38:27.227Z,38.73
2018-12-15T11:40:36.241Z,42.70
2018-12-15T11:42:40.203Z,39.83
2018-12-15T11:44:48.942Z,37.73
2018-12-15T11:46:55.029Z,36.37
2018-12-15T11:48:58.952Z,40.60
2018-12-15T11:51:02.822Z,42.63
2018-12-15T11:53:12.678Z,34.40
2018-12-15T11:55:16.736Z,40.20
2018-12-15T11:57:25.417Z,36.17
2018-12-15T11:59:34.256Z,38.03
2018-12-15T12:01:40.311Z,40.47
2018-12-15T12:03:49.037Z,41.27
2018-12-15T12:05:53.109Z,38.23
2018-12-15T12:07:58.917Z,37.63
2018-12-15T12:10:07.623Z,48.83
2018-12-15T12:12:11.827Z,38.30
2018-12-15T12:14:20.492Z,43.77
2018-12-15T12:16:24.342Z,44.83
2018-12-15T12:18:28.246Z,41.37
2018-12-15T12:20:37.000Z,33.47
2018-12-15T12:22:45.868Z,42.37
2018-12-15T12:24:54.732Z,42.97
2018-12-15T12:27:00.795Z,34.87
2018-12-15T12:29:09.440Z,39.27
2018-12-15T12:31:13.779Z,42.40
2018-12-15T12:33:22.948Z,43.13
2018-12-15T12:35:31.976Z,47.50
2018-12-15T12:37:41.808Z,44.63
2018-12-15T12:39:50.883Z,42.60
2018-12-15T12:41:59.702Z,38.63
2018-12-15T12:44:03.907Z,41.50
2018-12-15T12:46:12.333Z,39.83
2018-12-15T12:48:16.444Z,42.33
2018-12-15T12:50:22.317Z,41.07
2018-12-15T12:52:26.216Z,33.73
2018-12-15T12:54:34.932Z,50.80
2018-12-15T12:56:38.983Z,44.00
2018-12-15T12:58:43.054Z,44.07
2018-12-15T13:00:51.821Z,43.93
2018-12-15T13:02:55.791Z,36.20
2018-12-15T13:05:05.146Z,34.90
2018-12-15T13:07:14.199Z,39.90
2018-12-15T13:09:18.012Z,37.63
2018-12-15T13:11:21.872Z,42.37
2018-12-15T13:13:25.868Z,37.83
2018-12-15T13:15:29.792Z,36.30
2018-12-15T13:17:33.591Z,34.37
2018-12-15T13:19:37.521Z,36.93
2018-12-15T13:21:41.489Z,37.47
2018-12-15T13:23:51.136Z,43.07
2018-12-15T13:25:54.523Z,41.93
2018-12-15T13:27:58.392Z,36.73
2018-12-15T13:30:02.357Z,45.80
2018-12-15T13:32:10.935Z,40.53
2018-12-15T13:34:15.010Z,38.70
2018-12-15T13:36:18.917Z,41.13
2018-12-15T13:38:27.686Z,46.97
2018-12-15T13:40:31.460Z,40.80
2018-12-15T13:44:39.387Z,36.97
2018-12-15T13:46:43.232Z,37.77
2018-12-15T13:48:47.228Z,39.73
2018-12-15T13:50:50.880Z,34.37
2018-12-15T13:52:55.008Z,32.93
2018-12-15T13:54:58.698Z,29.03
2018-12-15T13:57:07.152Z,35.23
2018-12-15T13:59:11.249Z,35.40
2018-12-15T14:01:19.696Z,35.93
2018-12-15T14:03:23.804Z,30.83
2018-12-15T14:05:32.378Z,39.13
2018-12-15T14:07:36.663Z,40.00
2018-12-15T14:09:45.192Z,35.80
2018-12-15T14:11:49.265Z,34.47
2018-12-15T14:13:59.004Z,39.90
2018-12-15T14:16:07.995Z,38.67
2018-12-15T14:18:12.189Z,39.87
2018-12-15T14:20:20.779Z,33.30
2018-12-15T14:22:24.857Z,36.27
2018-12-15T14:24:33.522Z,33.73
2018-12-15T14:26:42.381Z,34.87
2018-12-15T14:28:46.368Z,32.70
2018-12-15T14:30:55.034Z,29.50
2018-12-15T14:32:59.040Z,32.60
2018-12-15T14:35:07.625Z,32.77
2018-12-15T14:37:13.781Z,32.07
2018-12-15T14:39:17.671Z,27.00
2018-12-15T14:41:26.246Z,33.80
2018-12-15T14:43:30.081Z,35.70
2018-12-15T14:47:42.608Z,31.67
2018-12-15T14:49:46.696Z,34.73
2018-12-15T14:51:50.827Z,31.40
2018-12-15T14:53:59.388Z,31.00
2018-12-15T14:56:03.381Z,33.17
2018-12-15T14:58:07.268Z,35.83
2018-12-15T15:00:15.999Z,31.23
2018-12-15T15:02:22.002Z,34.27
2018-12-15T15:04:25.879Z,32.23
2018-12-15T15:06:29.656Z,28.03
2018-12-15T15:08:33.841Z,33.33
2018-12-15T15:10:42.581Z,36.90
2018-12-15T15:12:50.653Z,34.63
2018-12-15T15:14:54.548Z,34.57
2018-12-15T15:17:00.419Z,34.40
2018-12-15T15:19:09.136Z,31.90
2018-12-15T15:21:17.885Z,29.53
2018-12-15T15:23:21.936Z,32.20
2018-12-15T15:25:25.940Z,31.33
2018-12-15T15:27:34.574Z,33.53
2018-12-15T15:29:43.288Z,30.63
2018-12-15T15:31:47.484Z,31.10
2018-12-15T15:33:51.308Z,32.33
2018-12-15T15:36:00.080Z,33.67
2018-12-15T15:38:08.870Z,31.80
2018-12-15T15:40:12.952Z,30.37
2018-12-15T15:42:18.881Z,30.20
2018-12-15T15:44:27.406Z,32.43
2018-12-15T15:50:44.244Z,29.77
2018-12-15T15:56:53.224Z,28.60
2018-12-15T15:59:02.101Z,28.90
2018-12-15T16:01:06.080Z,28.73
2018-12-15T16:03:14.584Z,31.10
2018-12-15T16:05:18.684Z,28.50
2018-12-15T16:07:22.651Z,29.13
2018-12-15T16:09:26.420Z,29.03
2018-12-15T16:11:35.073Z,29.57
2018-12-15T16:13:39.196Z,25.60
2018-12-15T16:15:43.103Z,31.83
2018-12-15T16:17:47.111Z,28.30
2018-12-15T16:19:55.718Z,35.00
2018-12-15T16:22:05.270Z,27.80
2018-12-15T16:24:08.872Z,33.27
2018-12-15T16:26:17.369Z,28.50
2018-12-15T16:28:21.352Z,28.70
2018-12-15T16:30:30.018Z,28.40
2018-12-15T16:32:39.641Z,29.43
2018-12-15T16:34:43.143Z,26.03
2018-12-15T16:36:51.680Z,29.33
2018-12-15T16:39:00.756Z,29.00
2018-12-15T16:41:04.834Z,26.90
2018-12-15T16:43:13.484Z,19.77
2018-12-15T16:45:22.648Z,25.57
2018-12-15T16:47:31.285Z,26.13
2018-12-15T16:49:40.161Z,30.63
2018-12-15T16:51:44.383Z,26.00
2018-12-15T16:53:48.242Z,31.50
2018-12-15T16:55:57.353Z,27.60
2018-12-15T16:58:00.997Z,30.83
2018-12-15T17:00:07.425Z,24.87
2018-12-15T17:02:16.356Z,27.90
2018-12-15T17:04:20.405Z,31.40
2018-12-15T17:06:24.376Z,25.77
2018-12-15T17:08:33.228Z,29.33
2018-12-15T17:10:41.872Z,31.43
2018-12-15T17:12:45.864Z,23.20
2018-12-15T17:14:49.831Z,25.83
2018-12-15T17:16:53.708Z,30.17
2018-12-15T17:19:02.447Z,29.70
2018-12-15T17:21:11.169Z,31.47
2018-12-15T17:23:15.141Z,26.73
2018-12-15T17:25:23.745Z,20.83
2018-12-15T17:27:29.239Z,29.03
2018-12-15T17:29:32.930Z,19.30
2018-12-15T17:31:36.701Z,25.73
2018-12-15T17:33:40.553Z,30.70
2018-12-15T17:35:49.285Z,27.27
2018-12-15T17:37:53.278Z,31.43
2018-12-15T17:39:57.252Z,25.80
2018-12-15T17:42:05.892Z,28.90
2018-12-15T17:44:14.732Z,27.67
2018-12-15T17:46:23.499Z,27.50
2018-12-15T17:48:33.324Z,26.53
2018-12-15T17:50:37.596Z,25.77
2018-12-15T17:52:41.684Z,29.60
2018-12-15T17:54:51.370Z,22.93
2018-12-15T17:57:00.429Z,25.80
2018-12-15T17:59:08.999Z,29.80
2018-12-15T18:01:14.998Z,25.80
2018-12-15T18:05:26.480Z,25.60
2018-12-15T18:07:30.584Z,30.50
2018-12-15T18:09:34.715Z,31.97
2018-12-15T18:11:38.400Z,27.07
2018-12-15T18:13:42.399Z,22.87
2018-12-15T18:15:46.429Z,23.37
2018-12-15T18:17:50.200Z,25.37
2018-12-15T18:19:58.728Z,21.73
2018-12-15T18:22:04.747Z,28.80
2018-12-15T18:24:13.327Z,29.50
2018-12-15T18:26:22.204Z,30.70
2018-12-15T18:28:26.012Z,27.40
2018-12-15T18:30:29.874Z,32.73
2018-12-15T18:32:38.587Z,27.83
2018-12-15T18:34:47.184Z,31.83
2018-12-15T18:36:55.994Z,32.57
2018-12-15T18:38:59.995Z,28.63
2018-12-15T18:41:09.579Z,21.17
2018-12-15T18:43:18.472Z,34.50
2018-12-15T18:45:27.287Z,29.57
2018-12-15T18:47:35.950Z,33.43
2018-12-15T18:49:44.595Z,31.93
2018-12-15T18:51:53.352Z,33.27
2018-12-15T18:54:02.327Z,31.80
2018-12-15T18:56:06.305Z,32.97
2018-12-15T18:58:14.785Z,22.03
2018-12-15T19:00:19.094Z,26.43
2018-12-15T19:02:22.895Z,28.67
2018-12-15T19:10:44.136Z,26.30
2018-12-15T19:14:56.789Z,31.57
2018-12-15T19:17:05.608Z,31.93
2018-12-15T19:19:14.417Z,31.63
2018-12-15T19:21:22.978Z,25.73
2018-12-15T19:23:24.600Z,27.13
2018-12-15T19:25:33.298Z,32.43
2018-12-15T19:27:37.285Z,30.83
2018-12-15T19:29:40.960Z,28.87
2018-12-15T19:31:46.928Z,31.20
2018-12-15T19:33:51.031Z,26.97
2018-12-15T19:35:54.877Z,22.77
2018-12-15T19:38:03.571Z,30.37
2018-12-15T19:40:12.412Z,28.00
2018-12-15T19:42:21.268Z,30.17
2018-12-15T19:44:25.415Z,24.43
2018-12-15T19:46:29.199Z,26.07
2018-12-15T19:48:33.095Z,30.50
2018-12-15T19:50:36.969Z,21.50
2018-12-15T19:52:45.511Z,23.87
2018-12-15T19:54:49.592Z,28.60
2018-12-15T19:56:53.581Z,29.37
2018-12-15T19:59:02.182Z,30.40
2018-12-15T20:01:06.371Z,25.57
2018-12-15T20:03:10.133Z,26.97
2018-12-15T20:05:14.220Z,28.47
2018-12-15T20:07:20.040Z,25.73
2018-12-15T20:09:25.839Z,30.20
2018-12-15T20:11:29.878Z,23.77
2018-12-15T20:15:42.333Z,25.90
2018-12-15T20:21:59.779Z,24.80
2018-12-15T20:24:08.825Z,21.47
2018-12-15T20:26:12.908Z,28.97
2018-12-15T20:28:16.897Z,26.53
2018-12-15T20:30:20.892Z,22.77
2018-12-15T20:32:29.328Z,28.97
2018-12-15T20:34:38.107Z,22.23
2018-12-15T20:36:46.984Z,21.20
2018-12-15T20:38:50.861Z,26.87
2018-12-15T20:40:59.420Z,23.67
2018-12-15T20:43:03.647Z,31.43
2018-12-15T20:45:09.392Z,23.47
2018-12-15T20:47:13.062Z,21.60
2018-12-15T20:49:16.760Z,28.77
2018-12-15T20:51:25.220Z,25.30
2018-12-15T20:53:29.388Z,22.03
2018-12-15T20:55:33.196Z,26.40
2018-12-15T20:57:37.105Z,29.07
2018-12-15T20:59:41.088Z,30.87
2018-12-15T21:01:45.043Z,27.23
2018-12-15T21:03:49.275Z,30.43
2018-12-15T21:05:58.526Z,30.17
2018-12-15T21:08:04.405Z,24.10
2018-12-15T21:10:08.457Z,28.20
2018-12-15T21:12:16.969Z,28.27
2018-12-15T21:14:25.796Z,21.80
2018-12-15T21:16:34.587Z,30.30
2018-12-15T21:18:43.456Z,29.93
2018-12-15T21:20:47.356Z,24.13
2018-12-15T21:22:55.852Z,24.93
2018-12-15T21:25:00.037Z,28.30
2018-12-15T21:27:08.780Z,28.73
2018-12-15T21:29:12.853Z,28.70
2018-12-15T21:31:21.582Z,29.30
2018-12-15T21:33:30.527Z,33.13
2018-12-15T21:35:34.597Z,27.20
2018-12-15T21:37:44.292Z,33.00
2018-12-15T21:39:53.158Z,28.57
2018-12-15T21:42:01.992Z,27.57
2018-12-15T21:44:10.941Z,27.60
2018-12-15T21:46:19.816Z,23.47
2018-12-15T21:48:29.605Z,25.67
2018-12-15T21:50:38.464Z,22.50
2018-12-15T21:52:44.732Z,25.03
2018-12-15T21:54:54.004Z,26.00
2018-12-15T21:57:02.673Z,27.20
2018-12-15T21:59:06.774Z,26.50
2018-12-15T22:01:10.776Z,27.63
2018-12-15T22:03:14.798Z,23.80
2018-12-15T22:05:18.791Z,25.73
2018-12-15T22:07:22.991Z,26.30
2018-12-15T22:09:31.748Z,26.00
2018-12-15T22:11:40.640Z,27.63
2018-12-15T22:13:44.723Z,28.13
2018-12-15T22:15:53.520Z,25.93
2018-12-15T22:18:02.195Z,27.97
2018-12-15T22:20:07.121Z,26.90
2018-12-15T22:22:11.283Z,20.30
2018-12-15T22:24:19.692Z,22.17
2018-12-15T22:26:28.514Z,25.80
2018-12-15T22:28:37.525Z,25.97
2018-12-15T22:30:46.880Z,25.83
2018-12-15T22:32:55.929Z,21.77
2018-12-15T22:35:00.043Z,27.10
2018-12-15T22:37:04.027Z,27.60
2018-12-15T22:39:07.909Z,28.07
2018-12-15T22:41:16.659Z,25.80
2018-12-15T22:43:20.629Z,28.77
2018-12-15T22:45:29.259Z,25.30
2018-12-15T22:47:38.116Z,25.80
2018-12-15T22:49:42.218Z,27.23
2018-12-15T22:51:50.967Z,22.40
2018-12-15T22:53:59.750Z,25.57
2018-12-15T22:56:05.683Z,24.57
2018-12-15T22:58:09.617Z,28.10
2018-12-15T23:00:18.008Z,20.27
2018-12-15T23:02:22.180Z,27.57
2018-12-15T23:04:26.064Z,26.20
2018-12-15T23:06:31.956Z,21.30
2018-12-15T23:08:36.127Z,27.03
2018-12-15T23:10:44.772Z,22.93
2018-12-15T23:12:53.488Z,26.93
2018-12-15T23:15:02.520Z,26.40
2018-12-15T23:17:06.893Z,28.40
2018-12-15T23:19:15.456Z,27.77
2018-12-15T23:21:19.517Z,23.23
2018-12-15T23:23:28.274Z,27.63
2018-12-15T23:25:32.264Z,23.67
2018-12-15T23:27:40.874Z,27.07
2018-12-15T23:29:45.012Z,23.50
2018-12-15T23:31:53.776Z,26.43
2018-12-15T23:34:00.215Z,23.30
2018-12-15T23:36:03.860Z,22.47
2018-12-15T23:38:12.493Z,26.23
2018-12-15T23:40:16.501Z,20.93
2018-12-15T23:42:22.495Z,26.43
2018-12-15T23:44:31.024Z,27.07
2018-12-15T23:46:35.292Z,26.63
2018-12-15T23:48:38.859Z,23.30
2018-12-15T23:50:47.519Z,25.37
2018-12-15T23:52:53.737Z,25.77
2018-12-15T23:54:59.908Z,21.80
2018-12-15T23:57:04.093Z,27.43
2018-12-15T23:59:12.848Z,27.53
